Time;durP1;ratioP1;P1;durP2;ratioP2;P2;SDS_P1;SDS_P2;PMS_P1;PMS_P2;Temp;Humidity;BMP_temperature;BMP_pressure;BME280_temperature;BME280_humidity;BME280_pressure;Samples;Min_cycle;Max_cycle;Signal;HPM_P1;HPM_P2
2024/01/02 00:00:06;;;;;;;14.83;2.97;;;;;;;;;;5114813;28;20108;-31
2024/01/02 00:02:31;;;;;;;16.60;3.00;;;;;;;;;;5115023;28;20348;-32
2024/01/02 00:04:56;;;;;;;19.43;3.53;;;;;;;;;;5114632;28;20365;-31
2024/01/02 00:07:21;;;;;;;13.05;2.83;;;;;;;;;;5115021;28;20257;-31
2024/01/02 00:09:47;;;;;;;12.90;2.90;;;;;;;;;;5114717;28;20019;-34
2024/01/02 00:12:12;;;;;;;8.95;2.60;;;;;;;;;;5114496;28;20261;-31
2024/01/02 00:14:37;;;;;;;15.53;2.70;;;;;;;;;;5115174;28;20024;-31
2024/01/02 00:17:02;;;;;;;10.40;2.70;;;;;;;;;;5114782;28;20269;-31
2024/01/02 00:19:27;;;;;;;14.90;2.90;;;;;;;;;;5115075;28;20020;-31
2024/01/02 00:21:53;;;;;;;12.23;2.80;;;;;;;;;;5114735;28;20050;-31
2024/01/02 00:24:18;;;;;;;13.45;3.35;;;;;;;;;;5114888;28;20265;-31
2024/01/02 00:26:43;;;;;;;12.80;2.55;;;;;;;;;;5114914;28;20024;-31
2024/01/02 00:29:08;;;;;;;10.23;2.87;;;;;;;;;;5114543;28;20034;-31
2024/01/02 00:31:33;;;;;;;13.10;2.83;;;;;;;;;;5114534;28;20257;-31
2024/01/02 00:33:59;;;;;;;14.07;2.57;;;;;;;;;;5095978;28;20339;-31
2024/01/02 00:36:24;;;;;;;12.70;3.07;;;;;;;;;;5114740;28;20254;-31
2024/01/02 00:38:49;;;;;;;9.00;2.63;;;;;;;;;;5114205;28;20245;-31
2024/01/02 00:41:14;;;;;;;12.17;2.67;;;;;;;;;;5114141;28;20289;-31
2024/01/02 00:43:39;;;;;;;12.40;2.90;;;;;;;;;;5113973;28;20280;-31
2024/01/02 00:46:04;;;;;;;7.80;2.60;;;;;;;;;;5114534;28;20280;-31
2024/01/02 00:48:30;;;;;;;7.22;2.15;;;;;;;;;;5114049;28;20277;-31
2024/01/02 00:50:55;;;;;;;7.83;1.97;;;;;;;;;;5115124;28;20012;-32
2024/01/02 00:53:20;;;;;;;9.37;2.77;;;;;;;;;;5114233;28;20245;-32
2024/01/02 00:55:46;;;;;;;9.88;2.80;;;;;;;;;;5114172;28;20598;-31
2024/01/02 00:58:11;;;;;;;11.68;2.67;;;;;;;;;;5114153;28;20366;-32
2024/01/02 01:00:36;;;;;;;9.23;2.42;;;;;;;;;;5114044;28;20140;-31
2024/01/02 01:03:01;;;;;;;10.98;2.63;;;;;;;;;;5114202;28;20016;-32
2024/01/02 01:05:26;;;;;;;10.68;2.35;;;;;;;;;;5114092;28;20055;-32
2024/01/02 01:07:52;;;;;;;12.95;2.50;;;;;;;;;;5119267;28;20061;-31
2024/01/02 01:10:17;;;;;;;10.75;2.42;;;;;;;;;;5120643;28;20015;-31
2024/01/02 01:12:45;;;;;;;10.40;2.55;;;;;;;;;;5120788;28;20061;-32
2024/01/02 01:15:10;;;;;;;9.02;2.53;;;;;;;;;;5120863;28;20027;-32
2024/01/02 01:17:35;;;;;;;8.07;2.30;;;;;;;;;;5120837;28;20023;-31
2024/01/02 01:20:00;;;;;;;11.53;2.70;;;;;;;;;;5120569;28;20068;-31
2024/01/02 01:22:25;;;;;;;7.87;2.10;;;;;;;;;;5120782;28;20608;-31
2024/01/02 01:24:50;;;;;;;8.93;2.20;;;;;;;;;;5120970;28;20402;-32
2024/01/02 01:27:16;;;;;;;8.63;2.30;;;;;;;;;;5121256;28;20346;-30
2024/01/02 01:29:41;;;;;;;7.50;2.28;;;;;;;;;;5120709;28;20257;-32
2024/01/02 01:32:07;;;;;;;8.20;2.08;;;;;;;;;;5120732;28;20519;-32
2024/01/02 01:34:32;;;;;;;7.22;2.08;;;;;;;;;;5120326;28;20030;-32
2024/01/02 01:36:58;;;;;;;9.97;2.10;;;;;;;;;;5120420;28;20106;-31
2024/01/02 01:39:23;;;;;;;7.47;1.97;;;;;;;;;;5120316;28;20252;-32
2024/01/02 01:41:48;;;;;;;8.48;2.17;;;;;;;;;;5120571;28;20303;-32
2024/01/02 01:44:13;;;;;;;12.18;2.50;;;;;;;;;;5120768;28;20020;-31
2024/01/02 01:46:39;;;;;;;8.10;2.13;;;;;;;;;;5101993;28;20378;-31
2024/01/02 01:49:08;;;;;;;7.82;2.00;;;;;;;;;;5120191;28;20293;-31
2024/01/02 01:51:39;;;;;;;8.73;1.90;;;;;;;;;;5120550;28;20015;-32
2024/01/02 01:54:04;;;;;;;6.43;1.80;;;;;;;;;;5120565;28;20024;-32
2024/01/02 01:56:30;;;;;;;8.95;1.98;;;;;;;;;;5120469;28;20016;-31
2024/01/02 01:58:56;;;;;;;3.85;1.38;;;;;;;;;;5120484;28;20011;-31
2024/01/02 02:01:21;;;;;;;4.72;1.55;;;;;;;;;;5120085;28;20047;-31
2024/01/02 02:03:47;;;;;;;6.18;1.80;;;;;;;;;;5120236;28;20028;-32
2024/01/02 02:06:12;;;;;;;3.70;1.50;;;;;;;;;;5120623;28;20019;-32
2024/01/02 02:08:38;;;;;;;3.85;1.40;;;;;;;;;;5120113;28;20016;-32
2024/01/02 02:11:04;;;;;;;3.05;1.15;;;;;;;;;;5120278;28;20023;-32
2024/01/02 02:13:29;;;;;;;6.93;1.20;;;;;;;;;;5120319;28;20016;-32
2024/01/02 02:15:54;;;;;;;3.03;1.17;;;;;;;;;;5120050;28;20024;-31
2024/01/02 02:18:19;;;;;;;4.43;0.93;;;;;;;;;;5118101;28;20020;-32
2024/01/02 02:20:45;;;;;;;6.47;1.47;;;;;;;;;;5116778;28;20705;-32
2024/01/02 02:23:10;;;;;;;4.32;1.10;;;;;;;;;;5117592;28;20311;-32
2024/01/02 02:25:35;;;;;;;3.57;1.03;;;;;;;;;;5117268;28;20072;-32
2024/01/02 02:28:00;;;;;;;3.57;0.90;;;;;;;;;;5116588;28;20743;-31
2024/01/02 02:30:25;;;;;;;4.03;1.00;;;;;;;;;;5117198;28;20288;-33
2024/01/02 02:32:51;;;;;;;2.72;0.90;;;;;;;;;;5116605;28;20642;-32
2024/01/02 02:35:16;;;;;;;4.68;1.00;;;;;;;;;;5117011;28;20020;-32
2024/01/02 02:37:41;;;;;;;2.95;0.90;;;;;;;;;;5116542;28;20528;-32
2024/01/02 02:40:07;;;;;;;5.00;1.02;;;;;;;;;;5098166;28;20374;-31
2024/01/02 02:42:32;;;;;;;4.28;1.05;;;;;;;;;;5117407;28;20363;-31
2024/01/02 02:44:58;;;;;;;2.10;0.80;;;;;;;;;;5116294;28;20012;-32
2024/01/02 02:47:23;;;;;;;1.42;0.63;;;;;;;;;;5116481;28;20253;-32
2024/01/02 02:49:49;;;;;;;4.60;0.82;;;;;;;;;;5116514;28;20050;-31
2024/01/02 02:52:15;;;;;;;1.48;0.70;;;;;;;;;;5116157;28;20054;-32
2024/01/02 02:54:40;;;;;;;2.25;0.90;;;;;;;;;;5116647;28;20047;-32
2024/01/02 02:57:05;;;;;;;3.57;0.80;;;;;;;;;;5116672;28;20027;-32
2024/01/02 02:59:30;;;;;;;1.45;0.63;;;;;;;;;;5116216;28;20606;-32
2024/01/02 03:01:56;;;;;;;3.55;0.90;;;;;;;;;;5116637;28;20024;-32
2024/01/02 03:04:21;;;;;;;4.68;0.95;;;;;;;;;;5115933;28;20016;-32
2024/01/02 03:06:46;;;;;;;3.20;0.90;;;;;;;;;;5116540;28;20032;-32
2024/01/02 03:09:11;;;;;;;1.50;0.60;;;;;;;;;;5116212;28;20333;-31
2024/01/02 03:11:36;;;;;;;3.70;0.70;;;;;;;;;;5115977;28;20253;-30
2024/01/02 03:14:02;;;;;;;1.20;0.40;;;;;;;;;;5115993;28;20608;-31
2024/01/02 03:16:27;;;;;;;1.83;0.60;;;;;;;;;;5116033;28;20352;-32
2024/01/02 03:18:53;;;;;;;2.53;0.77;;;;;;;;;;5115741;28;20012;-31
2024/01/02 03:21:18;;;;;;;1.47;0.70;;;;;;;;;;5115605;28;20715;-32
2024/01/02 03:23:43;;;;;;;2.53;0.80;;;;;;;;;;5115902;28;20257;-32
2024/01/02 03:26:10;;;;;;;2.03;0.50;;;;;;;;;;5115453;28;20077;-32
2024/01/02 03:28:35;;;;;;;0.95;0.40;;;;;;;;;;5115488;28;20245;-31
2024/01/02 03:31:03;;;;;;;1.30;0.60;;;;;;;;;;5114527;28;20012;-31
2024/01/02 03:33:28;;;;;;;0.40;0.30;;;;;;;;;;5115583;28;20016;-31
2024/01/02 03:35:53;;;;;;;0.80;0.50;;;;;;;;;;5115414;28;20076;-32
2024/01/02 03:38:18;;;;;;;2.00;0.63;;;;;;;;;;5115512;28;20276;-32
2024/01/02 03:40:43;;;;;;;0.30;0.30;;;;;;;;;;5115419;28;20397;-32
2024/01/02 03:43:09;;;;;;;1.37;0.37;;;;;;;;;;5115399;28;20249;-32
2024/01/02 03:45:34;;;;;;;0.73;0.45;;;;;;;;;;5114997;28;20280;-32
2024/01/02 03:48:00;;;;;;;1.17;0.57;;;;;;;;;;5115069;28;20027;-32
2024/01/02 03:50:25;;;;;;;0.40;0.30;;;;;;;;;;5115178;28;20249;-33
2024/01/02 03:52:50;;;;;;;0.30;0.30;;;;;;;;;;5115286;28;20020;-32
2024/01/02 03:55:15;;;;;;;1.63;0.50;;;;;;;;;;5114997;28;20322;-32
2024/01/02 03:57:40;;;;;;;0.90;0.33;;;;;;;;;;5114930;28;20604;-32
2024/01/02 04:00:06;;;;;;;9.10;0.70;;;;;;;;;;5114764;28;20292;-31
2024/01/02 04:02:31;;;;;;;0.95;0.38;;;;;;;;;;5114853;28;20281;-32
2024/01/02 04:04:57;;;;;;;2.53;0.60;;;;;;;;;;5114976;28;20012;-31
2024/01/02 04:07:22;;;;;;;1.02;0.65;;;;;;;;;;5114990;28;20008;-31
2024/01/02 04:09:47;;;;;;;0.65;0.45;;;;;;;;;;5114763;28;20042;-31
2024/01/02 04:12:12;;;;;;;0.55;0.40;;;;;;;;;;5114911;28;20072;-32
2024/01/02 04:14:37;;;;;;;1.23;0.60;;;;;;;;;;5114624;28;20038;-32
2024/01/02 04:17:03;;;;;;;2.00;0.40;;;;;;;;;;5112612;28;20303;-32
2024/01/02 04:19:28;;;;;;;0.57;0.40;;;;;;;;;;5095192;28;20628;-31
2024/01/02 04:21:53;;;;;;;0.40;0.40;;;;;;;;;;5113269;28;20027;-36
2024/01/02 04:24:18;;;;;;;0.70;0.60;;;;;;;;;;5114937;28;20023;-32
2024/01/02 04:26:43;;;;;;;0.57;0.43;;;;;;;;;;5114383;28;20751;-32
2024/01/02 04:29:09;;;;;;;0.70;0.50;;;;;;;;;;5114314;28;20261;-32
2024/01/02 04:31:34;;;;;;;0.47;0.30;;;;;;;;;;5113308;28;20795;-31
2024/01/02 04:33:59;;;;;;;0.75;0.57;;;;;;;;;;5112183;28;20393;-32
2024/01/02 04:36:27;;;;;;;1.03;0.70;;;;;;;;;;5112241;28;20281;-32
2024/01/02 04:38:52;;;;;;;0.88;0.60;;;;;;;;;;5112058;28;20266;-32
2024/01/02 04:41:18;;;;;;;0.77;0.60;;;;;;;;;;5111811;28;20094;-31
2024/01/02 04:43:43;;;;;;;1.23;0.70;;;;;;;;;;5112502;28;20024;-32
2024/01/02 04:46:09;;;;;;;0.90;0.70;;;;;;;;;;5112383;28;20051;-32
2024/01/02 04:48:34;;;;;;;1.33;0.68;;;;;;;;;;5114628;28;20035;-32
2024/01/02 04:50:59;;;;;;;0.70;0.70;;;;;;;;;;5114007;28;20068;-32
2024/01/02 04:53:25;;;;;;;1.65;0.70;;;;;;;;;;5114081;28;20245;-32
2024/01/02 04:55:50;;;;;;;0.73;0.73;;;;;;;;;;5114550;28;20027;-32
2024/01/02 04:58:15;;;;;;;1.07;0.90;;;;;;;;;;5113977;28;20724;-32
2024/01/02 05:00:40;;;;;;;0.80;0.80;;;;;;;;;;5113729;28;20276;-32
2024/01/02 05:03:05;;;;;;;0.83;0.60;;;;;;;;;;5113954;28;20257;-31
2024/01/02 05:05:30;;;;;;;0.83;0.83;;;;;;;;;;5113749;28;20281;-32
2024/01/02 05:07:56;;;;;;;1.05;0.88;;;;;;;;;;5115051;28;20257;-32
2024/01/02 05:10:21;;;;;;;1.00;0.83;;;;;;;;;;5114125;28;20012;-32
2024/01/02 05:12:46;;;;;;;1.07;0.90;;;;;;;;;;5113729;28;20594;-32
2024/01/02 05:15:11;;;;;;;0.90;0.85;;;;;;;;;;5114358;28;20257;-33
2024/01/02 05:17:36;;;;;;;1.70;1.13;;;;;;;;;;5113766;28;20472;-33
2024/01/02 05:20:03;;;;;;;1.40;1.10;;;;;;;;;;5113779;28;20249;-33
2024/01/02 05:22:28;;;;;;;1.50;1.40;;;;;;;;;;5113605;28;20291;-33
2024/01/02 05:24:53;;;;;;;1.33;1.23;;;;;;;;;;5113870;28;20055;-33
2024/01/02 05:27:20;;;;;;;1.50;1.40;;;;;;;;;;5113942;28;20049;-33
2024/01/02 05:29:45;;;;;;;1.17;1.08;;;;;;;;;;5113905;28;20249;-33
2024/01/02 05:32:10;;;;;;;1.23;1.13;;;;;;;;;;5113611;28;20477;-33
2024/01/02 05:34:35;;;;;;;2.67;1.40;;;;;;;;;;5113885;28;20289;-33
2024/01/02 05:37:00;;;;;;;1.57;1.43;;;;;;;;;;5113506;28;20608;-33
2024/01/02 05:39:25;;;;;;;2.07;1.70;;;;;;;;;;5113577;28;20322;-33
2024/01/02 05:41:50;;;;;;;2.07;1.50;;;;;;;;;;5113528;28;20336;-33
2024/01/02 05:44:16;;;;;;;1.50;1.40;;;;;;;;;;5114002;28;20261;-33
2024/01/02 05:46:41;;;;;;;1.67;1.50;;;;;;;;;;5114069;28;20012;-33
2024/01/02 05:49:06;;;;;;;2.00;1.47;;;;;;;;;;5114038;28;20246;-33
2024/01/02 05:51:31;;;;;;;2.20;1.48;;;;;;;;;;5113700;28;20364;-33
2024/01/02 05:53:56;;;;;;;2.73;1.40;;;;;;;;;;5115081;28;20020;-33
2024/01/02 05:56:22;;;;;;;2.75;1.50;;;;;;;;;;5117289;28;20256;-33
2024/01/02 05:58:47;;;;;;;3.30;1.50;;;;;;;;;;5117552;28;20027;-33
2024/01/02 06:01:12;;;;;;;1.63;1.40;;;;;;;;;;5117017;28;20177;-33
2024/01/02 06:03:38;;;;;;;4.57;1.60;;;;;;;;;;5098882;28;20119;-33
2024/01/02 06:06:05;;;;;;;4.40;2.00;;;;;;;;;;5117004;28;20273;-33
2024/01/02 06:08:30;;;;;;;3.83;2.03;;;;;;;;;;5117120;28;20121;-33
2024/01/02 06:10:55;;;;;;;7.17;2.57;;;;;;;;;;5117063;28;20482;-33
2024/01/02 06:13:20;;;;;;;7.80;2.22;;;;;;;;;;5117160;28;20371;-33
2024/01/02 06:15:45;;;;;;;6.20;2.40;;;;;;;;;;5116981;28;20462;-33
2024/01/02 06:18:11;;;;;;;8.97;2.87;;;;;;;;;;5116853;28;20272;-33
2024/01/02 06:20:36;;;;;;;12.52;2.58;;;;;;;;;;5117107;28;20277;-33
2024/01/02 06:23:01;;;;;;;14.43;2.67;;;;;;;;;;5117038;28;20378;-33
2024/01/02 06:25:27;;;;;;;12.38;2.58;;;;;;;;;;5116616;28;20023;-33
2024/01/02 06:27:52;;;;;;;10.38;2.40;;;;;;;;;;5116918;28;20015;-33
2024/01/02 06:30:17;;;;;;;17.93;2.53;;;;;;;;;;5116686;28;20457;-33
2024/01/02 06:32:42;;;;;;;19.75;2.80;;;;;;;;;;5116850;28;20254;-33
2024/01/02 06:35:08;;;;;;;17.73;2.90;;;;;;;;;;5117102;28;20019;-33
2024/01/02 06:37:33;;;;;;;16.42;3.08;;;;;;;;;;5117024;28;20065;-33
2024/01/02 06:39:58;;;;;;;21.87;2.97;;;;;;;;;;5116490;28;20047;-33
2024/01/02 06:42:23;;;;;;;14.37;2.80;;;;;;;;;;5116266;28;20257;-33
2024/01/02 06:44:49;;;;;;;15.20;2.63;;;;;;;;;;5116575;28;20277;-33
2024/01/02 06:47:14;;;;;;;20.00;3.00;;;;;;;;;;5116620;28;20744;-33
2024/01/02 06:49:39;;;;;;;29.30;3.90;;;;;;;;;;5116722;28;20012;-33
2024/01/02 06:52:04;;;;;;;26.67;2.53;;;;;;;;;;5116271;28;20253;-33
2024/01/02 06:54:29;;;;;;;19.67;3.03;;;;;;;;;;5116061;28;20321;-33
2024/01/02 06:56:56;;;;;;;16.40;2.57;;;;;;;;;;5116154;28;20019;-33
2024/01/02 06:59:21;;;;;;;22.02;3.17;;;;;;;;;;5116159;28;20562;-32
2024/01/02 07:01:46;;;;;;;18.37;3.20;;;;;;;;;;5116061;28;20027;-33
2024/01/02 07:04:12;;;;;;;20.52;2.80;;;;;;;;;;5115811;28;20292;-33
2024/01/02 07:06:37;;;;;;;16.52;2.83;;;;;;;;;;5116194;28;20407;-33
2024/01/02 07:09:03;;;;;;;18.73;2.63;;;;;;;;;;5115809;28;20019;-33
2024/01/02 07:11:28;;;;;;;21.40;2.70;;;;;;;;;;5115765;28;20019;-33
2024/01/02 07:13:53;;;;;;;24.73;2.97;;;;;;;;;;5115867;28;20374;-33
2024/01/02 07:16:18;;;;;;;20.07;2.77;;;;;;;;;;5116276;28;20260;-33
2024/01/02 07:18:43;;;;;;;20.47;3.03;;;;;;;;;;5115789;28;20242;-33
2024/01/02 07:21:08;;;;;;;19.40;3.10;;;;;;;;;;5097383;28;20277;-33
2024/01/02 07:23:34;;;;;;;14.53;2.50;;;;;;;;;;5115641;28;20746;-33
2024/01/02 07:25:59;;;;;;;20.20;2.90;;;;;;;;;;5115684;28;20341;-33
2024/01/02 07:28:25;;;;;;;25.38;2.88;;;;;;;;;;5116084;28;20092;-33
2024/01/02 07:30:50;;;;;;;23.92;3.17;;;;;;;;;;5115374;28;20020;-33
2024/01/02 07:33:16;;;;;;;27.25;3.15;;;;;;;;;;5116225;28;20016;-33
2024/01/02 07:35:41;;;;;;;24.20;3.38;;;;;;;;;;5115327;28;20027;-33
2024/01/02 07:38:06;;;;;;;22.23;3.27;;;;;;;;;;5115354;28;20015;-33
2024/01/02 07:40:32;;;;;;;22.33;3.33;;;;;;;;;;5097012;28;20361;-33
2024/01/02 07:42:57;;;;;;;30.05;3.45;;;;;;;;;;5115460;28;20023;-33
2024/01/02 07:45:23;;;;;;;25.37;3.03;;;;;;;;;;5115172;28;20516;-33
2024/01/02 07:47:48;;;;;;;27.13;3.77;;;;;;;;;;5115655;28;20352;-33
2024/01/02 07:50:13;;;;;;;28.47;4.53;;;;;;;;;;5115083;28;20303;-33
2024/01/02 07:52:38;;;;;;;24.08;3.28;;;;;;;;;;5114931;28;20293;-33
2024/01/02 07:55:04;;;;;;;31.15;3.85;;;;;;;;;;5114984;28;20018;-33
2024/01/02 07:57:29;;;;;;;28.65;3.45;;;;;;;;;;5114858;28;20019;-33
2024/01/02 07:59:54;;;;;;;33.40;3.37;;;;;;;;;;5115213;28;20043;-33
2024/01/02 08:02:19;;;;;;;28.13;3.67;;;;;;;;;;5114786;28;20254;-34
2024/01/02 08:04:44;;;;;;;26.42;3.42;;;;;;;;;;5114999;28;20341;-33
2024/01/02 08:07:10;;;;;;;29.93;3.40;;;;;;;;;;5114809;28;20467;-33
2024/01/02 08:09:35;;;;;;;37.53;4.07;;;;;;;;;;5114663;28;20263;-33
2024/01/02 08:12:00;;;;;;;30.97;3.70;;;;;;;;;;5115140;28;20257;-34
2024/01/02 08:14:25;;;;;;;33.85;4.00;;;;;;;;;;5114581;28;20281;-33
2024/01/02 08:16:50;;;;;;;31.38;4.90;;;;;;;;;;5114431;28;20023;-33
2024/01/02 08:19:16;;;;;;;31.15;4.57;;;;;;;;;;5114617;28;20065;-33
2024/01/02 08:21:41;;;;;;;25.52;4.38;;;;;;;;;;5114441;28;20022;-33
2024/01/02 08:24:07;;;;;;;30.63;4.53;;;;;;;;;;5114444;28;20061;-33
2024/01/02 08:26:32;;;;;;;36.28;4.32;;;;;;;;;;5114331;28;20360;-33
2024/01/02 08:28:58;;;;;;;37.20;4.10;;;;;;;;;;5114921;28;20095;-33
2024/01/02 08:31:24;;;;;;;30.75;3.75;;;;;;;;;;5115156;28;20253;-33
2024/01/02 08:33:49;;;;;;;29.45;3.67;;;;;;;;;;5096077;28;20015;-33
2024/01/02 08:36:14;;;;;;;25.63;3.40;;;;;;;;;;5114826;28;20022;-33
2024/01/02 08:38:40;;;;;;;29.77;3.80;;;;;;;;;;5114159;28;20670;-33
2024/01/02 08:41:06;;;;;;;30.33;4.03;;;;;;;;;;5114150;28;20257;-33
2024/01/02 08:43:31;;;;;;;29.65;4.55;;;;;;;;;;5114378;28;20015;-33
2024/01/02 08:45:57;;;;;;;25.80;3.90;;;;;;;;;;5095866;28;20320;-33
2024/01/02 08:48:22;;;;;;;32.22;4.20;;;;;;;;;;5114253;28;20052;-33
2024/01/02 08:50:47;;;;;;;27.15;3.40;;;;;;;;;;5114060;28;20016;-33
2024/01/02 08:53:13;;;;;;;32.17;3.78;;;;;;;;;;5114508;28;20019;-33
2024/01/02 08:55:38;;;;;;;32.75;4.00;;;;;;;;;;5113610;28;20020;-33
2024/01/02 08:58:04;;;;;;;32.70;4.63;;;;;;;;;;5114033;28;20015;-33
2024/01/02 09:00:29;;;;;;;29.10;3.90;;;;;;;;;;5113916;28;20104;-33
2024/01/02 09:02:54;;;;;;;31.58;4.15;;;;;;;;;;5113862;28;20675;-33
2024/01/02 09:05:22;;;;;;;34.07;4.70;;;;;;;;;;5114033;28;20016;-33
2024/01/02 09:07:47;;;;;;;27.70;3.88;;;;;;;;;;5114093;28;20792;-33
2024/01/02 09:10:13;;;;;;;35.60;5.20;;;;;;;;;;5114374;28;20019;-33
2024/01/02 09:12:39;;;;;;;28.77;4.13;;;;;;;;;;5114015;28;20272;-33
2024/01/02 09:15:04;;;;;;;33.25;4.80;;;;;;;;;;5114020;28;20119;-33
2024/01/02 09:17:30;;;;;;;24.67;3.90;;;;;;;;;;5114017;28;20102;-33
2024/01/02 09:19:55;;;;;;;26.25;4.00;;;;;;;;;;5114079;28;20012;-33
2024/01/02 09:22:23;;;;;;;29.30;4.17;;;;;;;;;;5113695;28;20472;-33
2024/01/02 09:24:50;;;;;;;27.13;4.82;;;;;;;;;;5113639;28;20019;-33
2024/01/02 09:27:17;;;;;;;31.48;4.57;;;;;;;;;;5114179;28;20024;-33
2024/01/02 09:29:42;;;;;;;37.47;4.47;;;;;;;;;;5118231;28;20012;-33
2024/01/02 09:32:09;;;;;;;28.00;3.80;;;;;;;;;;5117765;28;20023;-33
2024/01/02 09:34:35;;;;;;;21.90;3.63;;;;;;;;;;5118511;28;20018;-33
2024/01/02 09:37:00;;;;;;;28.98;4.35;;;;;;;;;;5117696;28;20019;-33
2024/01/02 09:39:25;;;;;;;25.48;4.65;;;;;;;;;;5117629;28;20041;-33
2024/01/02 09:42:12;;;;;;;36.03;4.83;;;;;;;;;;5118199;28;20062;-33
2024/01/02 09:44:49;;;;;;;28.80;4.18;;;;;;;;;;5116846;28;20640;-35
2024/01/02 09:47:33;;;;;;;27.40;3.88;;;;;;;;;;5117157;28;20049;-33
2024/01/02 09:50:08;;;;;;;28.35;4.22;;;;;;;;;;5117629;28;20055;-34
2024/01/02 09:52:56;;;;;;;25.77;3.92;;;;;;;;;;5117983;28;20012;-34
2024/01/02 09:55:30;;;;;;;28.63;3.70;;;;;;;;;;5117278;28;20028;-33
2024/01/02 09:57:58;;;;;;;26.70;4.35;;;;;;;;;;5117308;28;20030;-33
2024/01/02 10:00:23;;;;;;;34.83;4.50;;;;;;;;;;5116885;28;20490;-34
2024/01/02 10:02:49;;;;;;;30.25;4.40;;;;;;;;;;5116544;28;20076;-34
2024/01/02 10:05:25;;;;;;;39.35;5.32;;;;;;;;;;5117359;28;20016;-33
2024/01/02 10:07:59;;;;;;;37.88;4.10;;;;;;;;;;5117081;28;20466;-32
2024/01/02 10:10:34;;;;;;;35.97;4.88;;;;;;;;;;5116981;28;20039;-33
2024/01/02 10:13:16;;;;;;;42.10;4.85;;;;;;;;;;5117001;28;20431;-32
2024/01/02 10:16:19;;;;;;;40.63;5.18;;;;;;;;;;5117343;28;20482;-32
2024/01/02 10:18:44;;;;;;;;;;;;;;;;;;5014937;28;20038;-32
2024/01/02 10:21:21;;;;;;;35.50;4.50;;;;;;;;;;5014532;28;19905;-32
2024/01/02 10:23:52;;;;;;;37.58;4.43;;;;;;;;;;5069286;28;20035;-32
2024/01/02 10:26:19;;;;;;;44.55;4.72;;;;;;;;;;5116612;28;20020;-32
2024/01/02 10:28:44;;;;;;;43.38;4.47;;;;;;;;;;5117876;28;20015;-32
2024/01/02 10:31:12;;;;;;;38.95;4.90;;;;;;;;;;5115803;28;20012;-32
2024/01/02 10:33:39;;;;;;;36.25;5.20;;;;;;;;;;5116944;28;20382;-31
2024/01/02 10:36:04;;;;;;;43.55;5.13;;;;;;;;;;5116889;28;20423;-31
2024/01/02 10:38:43;;;;;;;30.00;4.43;;;;;;;;;;5116884;28;20073;-31
2024/01/02 10:41:29;;;;;;;32.65;5.35;;;;;;;;;;5116179;28;20370;-32
2024/01/02 10:44:01;;;;;;;32.28;5.10;;;;;;;;;;5116761;28;20102;-32
2024/01/02 10:46:46;;;;;;;42.78;5.40;;;;;;;;;;5116782;28;20020;-32
2024/01/02 10:49:22;;;;;;;34.10;4.55;;;;;;;;;;5116236;28;20024;-32
2024/01/02 10:51:51;;;;;;;32.63;4.28;;;;;;;;;;5116508;28;20047;-32
2024/01/02 10:54:40;;;;;;;31.23;4.40;;;;;;;;;;5116081;28;20016;-31
2024/01/02 10:57:07;;;;;;;25.55;4.10;;;;;;;;;;5068687;28;20019;-31
2024/01/02 10:59:32;;;;;;;31.02;4.28;;;;;;;;;;5115868;28;20024;-31
2024/01/02 11:02:17;;;;;;;26.30;4.22;;;;;;;;;;5115836;28;20019;-32
2024/01/02 11:04:49;;;;;;;28.08;4.30;;;;;;;;;;5115696;28;20027;-33
2024/01/02 11:07:19;;;;;;;24.35;3.90;;;;;;;;;;5116241;28;20015;-32
2024/01/02 11:09:55;;;;;;;35.28;3.90;;;;;;;;;;5115761;28;20043;-31
2024/01/02 11:12:22;;;;;;;27.23;4.25;;;;;;;;;;5115563;28;20016;-32
2024/01/02 11:14:48;;;;;;;32.95;4.63;;;;;;;;;;5115858;28;20016;-32
2024/01/02 11:17:14;;;;;;;17.48;3.65;;;;;;;;;;5115557;28;20016;-32
2024/01/02 11:19:43;;;;;;;21.65;4.22;;;;;;;;;;5116075;28;20023;-31
2024/01/02 11:22:10;;;;;;;16.88;3.38;;;;;;;;;;5115899;28;20474;-32
2024/01/02 11:24:40;;;;;;;24.55;4.05;;;;;;;;;;5116518;28;20515;-32
2024/01/02 11:27:06;;;;;;;19.25;3.83;;;;;;;;;;5115828;28;20018;-32
2024/01/02 11:29:35;;;;;;;14.90;3.22;;;;;;;;;;5115501;28;20045;-32
2024/01/02 11:32:04;;;;;;;17.63;3.15;;;;;;;;;;5115746;28;20011;-32
2024/01/02 11:34:32;;;;;;;10.65;3.25;;;;;;;;;;5115813;28;20047;-32
2024/01/02 11:37:04;;;;;;;11.65;3.40;;;;;;;;;;5114940;28;20085;-32
2024/01/02 11:39:44;;;;;;;13.25;3.42;;;;;;;;;;5115557;28;20039;-32
2024/01/02 11:42:27;;;;;;;16.92;3.50;;;;;;;;;;5113247;28;20370;-32
2024/01/02 11:44:52;;;;;;;;;;;;;;;;;;5113415;28;20030;-31
2024/01/02 11:47:24;;;;;;;12.77;3.80;;;;;;;;;;5112961;28;19904;-32
2024/01/02 11:49:52;;;;;;;12.73;3.67;;;;;;;;;;5113037;28;20019;-33
2024/01/02 11:52:18;;;;;;;13.60;3.80;;;;;;;;;;5111982;28;20012;-32
2024/01/02 11:54:49;;;;;;;12.93;3.90;;;;;;;;;;5112864;28;20031;-32
2024/01/02 11:57:20;;;;;;;15.02;4.25;;;;;;;;;;5114616;28;20489;-31
2024/01/02 11:59:46;;;;;;;14.85;4.68;;;;;;;;;;5114927;28;20039;-31
2024/01/02 12:02:21;;;;;;;11.48;4.30;;;;;;;;;;5114856;28;20153;-32
2024/01/02 12:05:01;;;;;;;7.00;4.53;;;;;;;;;;5114051;28;20035;-32
2024/01/02 12:07:26;;;;;;;7.63;4.20;;;;;;;;;;5115315;28;20448;-31
2024/01/02 12:09:52;;;;;;;6.30;4.07;;;;;;;;;;5114723;28;20068;-31
2024/01/02 12:12:26;;;;;;;6.85;4.40;;;;;;;;;;5114516;28;20077;-31
2024/01/02 12:14:57;;;;;;;6.13;4.53;;;;;;;;;;5115193;28;20027;-31
2024/01/02 12:17:26;;;;;;;5.53;4.53;;;;;;;;;;5114609;28;20026;-32
2024/01/02 12:19:52;;;;;;;6.45;4.57;;;;;;;;;;5115035;28;20102;-32
2024/01/02 12:22:17;;;;;;;5.90;4.35;;;;;;;;;;5114816;28;20019;-32
2024/01/02 12:24:43;;;;;;;5.13;4.20;;;;;;;;;;5114338;28;20478;-32
2024/01/02 12:27:09;;;;;;;6.20;4.60;;;;;;;;;;5114445;28;20019;-32
2024/01/02 12:29:41;;;;;;;7.45;4.28;;;;;;;;;;5114439;28;20015;-32
2024/01/02 12:32:14;;;;;;;6.88;4.20;;;;;;;;;;5114961;28;20366;-32
2024/01/02 12:34:40;;;;;;;;;;;;;;;;;;5114674;28;20020;-32
2024/01/02 12:37:13;;;;;;;7.22;3.58;;;;;;;;;;5114351;28;19910;-32
2024/01/02 12:39:38;;;;;;;4.60;3.50;;;;;;;;;;5114617;28;20127;-32
2024/01/02 12:42:05;;;;;;;5.22;3.75;;;;;;;;;;5114484;28;20512;-32
2024/01/02 12:44:31;;;;;;;4.50;3.67;;;;;;;;;;5114725;28;20023;-33
2024/01/02 12:46:58;;;;;;;5.22;3.25;;;;;;;;;;5114416;28;20023;-33
2024/01/02 12:49:26;;;;;;;4.32;2.83;;;;;;;;;;5114337;28;20011;-32
2024/01/02 12:51:51;;;;;;;3.83;2.53;;;;;;;;;;5114003;28;20019;-32
2024/01/02 12:54:20;;;;;;;3.42;2.20;;;;;;;;;;5113779;28;20098;-32
2024/01/02 12:56:50;;;;;;;2.50;1.83;;;;;;;;;;5114247;28;20386;-33
2024/01/02 12:59:16;;;;;;;5.45;2.17;;;;;;;;;;5114028;28;20019;-33
2024/01/02 13:01:41;;;;;;;2.13;1.65;;;;;;;;;;5113907;28;20058;-33
2024/01/02 13:04:12;;;;;;;2.42;1.40;;;;;;;;;;5113600;28;20023;-34
2024/01/02 13:06:37;;;;;;;1.98;1.20;;;;;;;;;;5113725;28;20053;-33
2024/01/02 13:09:02;;;;;;;1.60;1.30;;;;;;;;;;5113833;28;20016;-33
2024/01/02 13:11:28;;;;;;;1.65;1.30;;;;;;;;;;5113698;28;20031;-33
2024/01/02 13:13:53;;;;;;;3.42;1.30;;;;;;;;;;5113811;28;20094;-32
2024/01/02 13:16:18;;;;;;;1.60;1.47;;;;;;;;;;5114265;28;20068;-32
2024/01/02 13:18:45;;;;;;;2.00;1.60;;;;;;;;;;5113440;28;20307;-33
2024/01/02 13:21:11;;;;;;;2.95;1.48;;;;;;;;;;5113774;28;20059;-32
2024/01/02 13:23:36;;;;;;;2.10;1.48;;;;;;;;;;5114263;28;20028;-34
2024/01/02 13:26:01;;;;;;;2.13;1.60;;;;;;;;;;5113653;28;20012;-33
2024/01/02 13:28:27;;;;;;;1.80;1.55;;;;;;;;;;5113972;28;20258;-33
2024/01/02 13:30:53;;;;;;;2.00;1.40;;;;;;;;;;5113683;28;20026;-32
2024/01/02 13:33:24;;;;;;;1.60;1.30;;;;;;;;;;5113920;28;20055;-32
2024/01/02 13:36:05;;;;;;;1.35;1.20;;;;;;;;;;5113855;28;20039;-33
2024/01/02 13:38:44;;;;;;;3.42;1.13;;;;;;;;;;5113803;28;20359;-33
2024/01/02 13:41:09;;;;;;;1.35;1.13;;;;;;;;;;5113784;28;20073;-33
2024/01/02 13:43:35;;;;;;;1.25;1.15;;;;;;;;;;5113837;28;20023;-33
2024/01/02 13:46:13;;;;;;;1.52;1.00;;;;;;;;;;5113731;28;20016;-33
2024/01/02 13:48:55;;;;;;;0.95;0.85;;;;;;;;;;5113732;28;20072;-33
2024/01/02 13:51:20;;;;;;;0.70;0.70;;;;;;;;;;5113811;28;20141;-34
2024/01/02 13:54:13;;;;;;;0.98;0.70;;;;;;;;;;5113505;28;20019;-33
2024/01/02 13:56:47;;;;;;;1.40;0.80;;;;;;;;;;5109104;28;20070;-33
2024/01/02 13:59:12;;;;;;;1.10;0.88;;;;;;;;;;5113324;28;20103;-32
2024/01/02 14:01:38;;;;;;;1.65;0.82;;;;;;;;;;5113206;28;20510;-33
2024/01/02 14:04:05;;;;;;;1.10;1.00;;;;;;;;;;5113975;28;20016;-33
2024/01/02 14:06:31;;;;;;;1.60;0.77;;;;;;;;;;5113279;28;20354;-33
2024/01/02 14:09:08;;;;;;;1.13;0.90;;;;;;;;;;5113448;28;20024;-33
2024/01/02 14:11:33;;;;;;;1.90;0.60;;;;;;;;;;5113607;28;20031;-33
2024/01/02 14:14:05;;;;;;;1.43;1.10;;;;;;;;;;5113248;28;20016;-33
2024/01/02 14:16:30;;;;;;;1.48;0.82;;;;;;;;;;5117431;28;20303;-32
2024/01/02 14:18:56;;;;;;;1.77;1.10;;;;;;;;;;5116724;28;20055;-33
2024/01/02 14:21:22;;;;;;;1.85;1.30;;;;;;;;;;5117142;28;20099;-32
2024/01/02 14:24:16;;;;;;;2.00;1.30;;;;;;;;;;5117006;28;20023;-33
2024/01/02 14:26:41;;;;;;;;;;;;;;;;;;5117441;28;20019;-33
2024/01/02 14:29:07;;;;;;;1.30;1.20;;;;;;;;;;5116767;28;20040;-32
2024/01/02 14:31:38;;;;;;;2.88;1.55;;;;;;;;;;5117040;28;20016;-33
2024/01/02 14:34:06;;;;;;;4.75;1.80;;;;;;;;;;5116910;28;20031;-33
2024/01/02 14:36:45;;;;;;;3.33;1.55;;;;;;;;;;5116591;28;20022;-33